createdAt,value
2022-08-09T00:00:12.008Z,102402.09
2022-08-09T00:02:42.991Z,102400.34
2022-08-09T00:06:17.892Z,102398.59
2022-08-09T00:08:13.041Z,102400.50
2022-08-09T00:10:59.229Z,102393.47
2022-08-09T00:13:26.132Z,102396.97
2022-08-09T00:15:59.554Z,102405.94
2022-08-09T00:18:31.469Z,102406.00
2022-08-09T00:21:04.602Z,102406.97
2022-08-09T00:23:55.684Z,102409.66
2022-08-09T00:26:18.822Z,102404.38
2022-08-09T00:28:52.425Z,102396.28
2022-08-09T00:31:56.930Z,102385.66
2022-08-09T00:34:10.884Z,102389.31
2022-08-09T00:36:38.395Z,102388.44
2022-08-09T00:39:17.086Z,102390.25
2022-08-09T00:44:11.745Z,102387.56
2022-08-09T00:44:43.070Z,102393.78
2022-08-09T00:47:15.372Z,102383.09
2022-08-09T00:49:43.862Z,102379.66
2022-08-09T00:52:28.197Z,102375.09
2022-08-09T00:55:00.172Z,102374.13
2022-08-09T00:57:34.595Z,102371.53
2022-08-09T01:00:21.758Z,102370.59
2022-08-09T01:03:14.609Z,102368.00
2022-08-09T01:05:54.180Z,102367.22
2022-08-09T01:08:32.087Z,102359.22
2022-08-09T01:11:04.696Z,102366.38
2022-08-09T01:13:59.494Z,102371.81
2022-08-09T01:16:47.326Z,102371.81
2022-08-09T01:19:42.701Z,102373.59
2022-08-09T01:22:27.810Z,102382.53
2022-08-09T01:24:55.132Z,102386.19
2022-08-09T01:27:24.890Z,102390.66
2022-08-09T01:30:05.552Z,102374.78
2022-08-09T01:32:45.340Z,102378.41
2022-08-09T01:35:37.273Z,102384.53
2022-08-09T01:38:14.846Z,102382.03
2022-08-09T01:40:52.818Z,102387.38
2022-08-09T01:43:32.284Z,102385.63
2022-08-09T01:46:26.961Z,102381.22
2022-08-09T01:49:00.000Z,102379.44
2022-08-09T01:51:32.161Z,102382.09
2022-08-09T01:54:04.088Z,102389.25
2022-08-09T01:56:33.529Z,102383.06
2022-08-09T01:59:06.418Z,102376.84
2022-08-09T02:01:59.405Z,102376.84
2022-08-09T02:04:25.196Z,102376.84
2022-08-09T02:07:15.329Z,102365.31
2022-08-09T02:09:59.396Z,102369.78
2022-08-09T02:12:30.789Z,102368.06
2022-08-09T02:15:00.418Z,102366.31
2022-08-09T02:17:59.959Z,102373.41
2022-08-09T02:20:25.339Z,102368.22
2022-08-09T02:23:10.347Z,102371.66
2022-08-09T02:25:42.201Z,102376.13
2022-08-09T02:28:19.606Z,102369.09
2022-08-09T02:30:54.297Z,102370.03
2022-08-09T02:33:58.312Z,102373.56
2022-08-09T02:36:18.377Z,102370.13
2022-08-09T02:38:54.911Z,102376.31
2022-08-09T02:41:30.855Z,102365.72
2022-08-09T02:44:10.515Z,102368.28
2022-08-09T02:46:52.484Z,102363.97
2022-08-09T02:49:19.702Z,102371.97
2022-08-09T02:51:57.796Z,102371.97
2022-08-09T02:54:28.603Z,102376.41
2022-08-09T02:57:13.959Z,102369.41
2022-08-09T03:00:11.239Z,102359.59
2022-08-09T03:02:46.475Z,102363.19
2022-08-09T03:05:28.800Z,102361.44
2022-08-09T03:07:56.993Z,102364.97
2022-08-09T03:10:26.487Z,102376.63
2022-08-09T03:12:55.100Z,102379.28
2022-08-09T03:15:23.697Z,102378.41
2022-08-09T03:17:58.025Z,102370.41
2022-08-09T03:20:29.421Z,102376.56
2022-08-09T03:23:05.577Z,102367.63
2022-08-09T03:25:59.237Z,102371.34
2022-08-09T03:28:31.233Z,102373.06
2022-08-09T03:31:04.401Z,102371.28
2022-08-09T03:33:53.347Z,102370.41
2022-08-09T03:36:21.670Z,102369.53
2022-08-09T03:38:54.890Z,102374.00
2022-08-09T03:41:29.984Z,102362.47
2022-08-09T03:44:10.240Z,102369.53
2022-08-09T03:46:39.267Z,102355.41
2022-08-09T03:49:08.268Z,102366.97
2022-08-09T03:51:56.613Z,102366.97
2022-08-09T03:54:31.484Z,102365.22
2022-08-09T03:57:04.440Z,102359.00
2022-08-09T03:59:52.853Z,102362.56
2022-08-09T04:02:27.015Z,102362.63
2022-08-09T04:04:58.719Z,102370.63
2022-08-09T04:07:47.630Z,102358.16
2022-08-09T04:10:13.555Z,102355.56
2022-08-09T04:12:47.968Z,102355.56
2022-08-09T04:15:52.224Z,102351.25
2022-08-09T04:18:06.447Z,102352.97
2022-08-09T04:20:33.857Z,102356.59
2022-08-09T04:23:01.975Z,102356.59
2022-08-09T04:25:29.375Z,102357.53
2022-08-09T04:28:02.362Z,102353.06
2022-08-09T04:30:31.899Z,102363.03
2022-08-09T04:33:00.333Z,102370.97
2022-08-09T04:35:29.435Z,102367.44
2022-08-09T04:37:59.886Z,102371.84
2022-08-09T04:40:48.459Z,102376.22
2022-08-09T04:43:23.144Z,102371.75
2022-08-09T04:45:54.030Z,102372.63
2022-08-09T04:48:21.784Z,102377.25
2022-08-09T04:50:50.873Z,102378.41
2022-08-09T04:53:17.805Z,102383.13
2022-08-09T04:55:59.152Z,102388.63
2022-08-09T04:58:28.031Z,102384.25
2022-08-09T05:00:57.510Z,102392.25
2022-08-09T05:03:40.995Z,102386.13
2022-08-09T05:06:22.102Z,102387.13
2022-08-09T05:09:00.451Z,102384.56
2022-08-09T05:11:32.481Z,102378.44
2022-08-09T05:14:05.889Z,102384.72
2022-08-09T05:16:33.534Z,102391.06
2022-08-09T05:19:10.669Z,102401.84
2022-08-09T05:21:47.091Z,102392.63
2022-08-09T05:24:19.241Z,102394.22
2022-08-09T05:26:47.641Z,102394.78
2022-08-09T05:29:23.974Z,102404.44
2022-08-09T05:31:57.602Z,102404.25
2022-08-09T05:34:30.678Z,102409.38
2022-08-09T05:37:06.089Z,102411.88
2022-08-09T05:39:42.423Z,102416.19
2022-08-09T05:42:20.579Z,102408.09
2022-08-09T05:44:51.347Z,102400.84
2022-08-09T05:47:21.525Z,102407.84
2022-08-09T05:50:35.024Z,102411.25
2022-08-09T05:52:38.424Z,102414.81
2022-08-09T05:55:07.308Z,102421.78
2022-08-09T05:57:50.750Z,102419.13
2022-08-09T06:00:23.694Z,102420.75
2022-08-09T06:02:54.080Z,102426.09
2022-08-09T06:05:31.042Z,102424.28
2022-08-09T06:08:09.248Z,102423.44
2022-08-09T06:10:38.845Z,102434.88
2022-08-09T06:13:12.429Z,102425.94
2022-08-09T06:15:46.840Z,102431.19
2022-08-09T06:18:15.721Z,102438.19
2022-08-09T06:20:43.035Z,102433.69
2022-08-09T06:23:16.965Z,102437.16
2022-08-09T06:25:43.851Z,102440.69
2022-08-09T06:28:10.816Z,102437.84
2022-08-09T06:30:43.374Z,102441.41
2022-08-09T06:33:30.603Z,102442.19
2022-08-09T06:35:58.378Z,102441.16
2022-08-09T06:38:32.190Z,102445.78
2022-08-09T06:41:09.377Z,102444.06
2022-08-09T06:43:46.842Z,102446.75
2022-08-09T06:46:39.705Z,102440.63
2022-08-09T06:49:02.375Z,102432.63
2022-08-09T06:51:29.266Z,102429.06
2022-08-09T06:54:00.888Z,102431.81
2022-08-09T06:56:30.976Z,102438.88
2022-08-09T07:00:49.063Z,102436.31
2022-08-09T07:01:53.694Z,102441.66
2022-08-09T07:04:24.571Z,102435.44
2022-08-09T07:06:53.533Z,102439.91
2022-08-09T07:09:55.305Z,102445.25
2022-08-09T07:12:17.957Z,102444.38
2022-08-09T07:14:50.670Z,102440.78
2022-08-09T07:17:19.328Z,102438.13
2022-08-09T07:19:48.261Z,102444.38
2022-08-09T07:22:18.562Z,102439.03
2022-08-09T07:24:55.048Z,102431.97
2022-08-09T07:27:27.283Z,102429.28
2022-08-09T07:30:03.038Z,102432.84
2022-08-09T07:32:33.567Z,102433.69
2022-08-09T07:35:07.974Z,102436.38
2022-08-09T07:37:43.604Z,102437.31
2022-08-09T07:40:18.681Z,102445.31
2022-08-09T07:43:03.779Z,102449.81
2022-08-09T07:45:41.887Z,102450.66
2022-08-09T07:48:29.530Z,102435.59
2022-08-09T07:51:09.207Z,102443.59
2022-08-09T07:54:06.274Z,102440.06
2022-08-09T07:56:36.037Z,102439.19
2022-08-09T07:59:14.223Z,102439.19
2022-08-09T08:01:53.237Z,102442.66
2022-08-09T08:04:20.475Z,102449.72
2022-08-09T08:07:00.253Z,102445.16
2022-08-09T08:09:45.172Z,102429.94
2022-08-09T08:12:37.165Z,102426.31
2022-08-09T08:15:07.489Z,102428.03
2022-08-09T08:17:53.064Z,102432.41
2022-08-09T08:20:29.477Z,102427.09
2022-08-09T08:23:06.940Z,102421.75
2022-08-09T08:25:46.405Z,102427.94
2022-08-09T08:28:15.502Z,102433.22
2022-08-09T08:30:47.495Z,102426.16
2022-08-09T08:33:23.088Z,102432.34
2022-08-09T08:35:59.298Z,102426.16
2022-08-09T08:38:31.108Z,102436.84
2022-08-09T08:40:59.611Z,102427.09
2022-08-09T08:43:28.077Z,102430.63
2022-08-09T08:46:10.143Z,102437.69
2022-08-09T08:48:51.909Z,102434.25
2022-08-09T08:51:22.608Z,102435.09
2022-08-09T08:54:03.095Z,102428.91
2022-08-09T08:56:37.832Z,102428.03
2022-08-09T08:59:19.832Z,102423.78
2022-08-09T09:01:53.306Z,102428.91
2022-08-09T09:04:41.312Z,102424.50
2022-08-09T09:07:16.209Z,102433.28
2022-08-09T09:10:02.069Z,102429.44
2022-08-09T09:12:34.408Z,102434.63
2022-08-09T09:15:05.782Z,102431.00
2022-08-09T09:17:46.410Z,102424.47
2022-08-09T09:20:17.395Z,102419.81
2022-08-09T09:22:53.472Z,102423.28
2022-08-09T09:26:01.354Z,102416.97
2022-08-09T09:29:02.520Z,102414.25
2022-08-09T09:32:06.012Z,102414.16
2022-08-09T09:34:18.094Z,102422.16
2022-08-09T09:36:52.788Z,102413.91
2022-08-09T09:39:54.541Z,102415.53
2022-08-09T09:42:24.856Z,102417.28
2022-08-09T09:44:59.815Z,102409.09
2022-08-09T09:47:29.308Z,102401.84
2022-08-09T09:50:14.779Z,102410.72
2022-08-09T09:52:53.705Z,102411.44
2022-08-09T09:55:32.573Z,102413.13
2022-08-09T09:58:17.106Z,102421.00
2022-08-09T10:00:59.635Z,102418.22
2022-08-09T10:03:44.100Z,102412.03
2022-08-09T10:06:13.072Z,102415.56
2022-08-09T10:08:55.059Z,102411.16
2022-08-09T10:11:59.545Z,102420.91
2022-08-09T10:14:30.772Z,102416.59
2022-08-09T10:17:38.715Z,102423.66
2022-08-09T10:19:58.905Z,102419.09
2022-08-09T10:22:35.733Z,102413.75
2022-08-09T10:25:11.994Z,102412.88
2022-08-09T10:27:57.114Z,102410.13
2022-08-09T10:32:13.695Z,102412.81
2022-08-09T10:34:05.192Z,102409.09
2022-08-09T10:36:09.675Z,102413.50
2022-08-09T10:38:56.224Z,102392.97
2022-08-09T10:41:27.760Z,102397.28
2022-08-09T10:44:00.877Z,102408.84
2022-08-09T10:46:55.679Z,102397.22
2022-08-09T10:49:51.523Z,102391.75
2022-08-09T10:52:53.652Z,102397.84
2022-08-09T10:55:26.420Z,102410.19
2022-08-09T10:57:58.658Z,102409.25
2022-08-09T11:00:33.274Z,102408.19
2022-08-09T11:03:14.819Z,102399.22
2022-08-09T11:06:15.427Z,102406.28
2022-08-09T11:08:47.742Z,102403.53
2022-08-09T11:11:17.306Z,102403.34
2022-08-09T11:13:51.217Z,102398.00
2022-08-09T11:16:37.393Z,102392.59
2022-08-09T11:19:07.841Z,102388.00
2022-08-09T11:22:10.173Z,102384.41
2022-08-09T11:25:17.611Z,102382.50
2022-08-09T11:28:08.332Z,102385.06
2022-08-09T11:30:39.899Z,102393.09
2022-08-09T11:33:18.094Z,102378.69
2022-08-09T11:35:50.271Z,102383.09
2022-08-09T11:38:32.308Z,102372.28
2022-08-09T11:41:13.850Z,102366.94
2022-08-09T11:43:49.153Z,102363.41
2022-08-09T11:46:26.864Z,102366.06
2022-08-09T11:49:05.342Z,102359.78
2022-08-09T11:53:15.315Z,102362.38
2022-08-09T11:55:34.862Z,102365.06
2022-08-09T11:58:15.208Z,102361.41
2022-08-09T12:00:49.896Z,102349.84
2022-08-09T12:03:54.986Z,102368.31
2022-08-09T12:06:18.136Z,102361.94
2022-08-09T12:08:56.200Z,102366.31
2022-08-09T12:11:27.226Z,102377.00
2022-08-09T12:14:28.538Z,102377.00
2022-08-09T12:16:56.388Z,102372.53
2022-08-09T12:19:30.771Z,102364.44
2022-08-09T12:22:05.018Z,102374.16
2022-08-09T12:24:32.647Z,102371.41
2022-08-09T12:29:14.243Z,102390.16
2022-08-09T12:30:02.019Z,102371.41
2022-08-09T12:32:44.181Z,102384.69
2022-08-09T12:35:13.382Z,102370.38
2022-08-09T12:37:51.839Z,102369.50
2022-08-09T12:40:23.249Z,102374.00
2022-08-09T12:42:52.758Z,102371.22
2022-08-09T12:45:34.786Z,102373.81
2022-08-09T12:48:20.277Z,102375.56
2022-08-09T12:50:56.023Z,102377.25
2022-08-09T12:53:37.220Z,102374.59
2022-08-09T12:56:13.815Z,102373.81
2022-08-09T12:59:08.646Z,102365.03
2022-08-09T13:01:46.931Z,102373.81
2022-08-09T13:04:37.098Z,102368.47
2022-08-09T13:07:20.034Z,102380.91
2022-08-09T13:10:05.158Z,102372.09
2022-08-09T13:12:39.949Z,102368.53
2022-08-09T13:15:20.562Z,102379.16
2022-08-09T13:18:05.434Z,102372.09
2022-08-09T13:20:37.372Z,102364.91
2022-08-09T13:24:15.221Z,102359.50
2022-08-09T13:26:39.963Z,102353.28
2022-08-09T13:29:13.411Z,102351.47
2022-08-09T13:32:14.069Z,102358.53
2022-08-09T13:34:48.867Z,102353.09
2022-08-09T13:37:24.641Z,102343.25
2022-08-09T13:41:52.004Z,102351.28
2022-08-09T13:42:56.243Z,102346.03
2022-08-09T13:45:32.641Z,102351.38
2022-08-09T13:48:11.088Z,102343.44
2022-08-09T13:50:38.483Z,102338.16
2022-08-09T13:53:07.287Z,102344.38
2022-08-09T13:55:34.882Z,102342.59
2022-08-09T13:58:07.956Z,102338.09
2022-08-09T14:00:50.005Z,102336.38
2022-08-09T14:04:05.464Z,102334.63
2022-08-09T14:06:19.362Z,102343.44
2022-08-09T14:08:53.509Z,102347.06
2022-08-09T14:11:20.782Z,102338.94
2022-08-09T14:14:23.568Z,102348.81
2022-08-09T14:16:37.985Z,102346.13
2022-08-09T14:19:07.682Z,102346.13
2022-08-09T14:21:34.568Z,102361.22
2022-08-09T14:24:10.002Z,102358.53
2022-08-09T14:26:46.930Z,102358.53
2022-08-09T14:30:04.160Z,102361.22
2022-08-09T14:32:11.305Z,102367.59
2022-08-09T14:34:41.237Z,102367.59
2022-08-09T14:37:09.050Z,102362.19
2022-08-09T14:39:40.407Z,102358.63
2022-08-09T14:42:30.135Z,102349.63
2022-08-09T14:46:40.436Z,102365.69
2022-08-09T14:47:57.371Z,102360.34
2022-08-09T14:50:32.308Z,102354.97
2022-08-09T14:53:01.974Z,102363.97
2022-08-09T14:55:32.069Z,102363.13
2022-08-09T14:58:00.383Z,102367.53
2022-08-09T15:00:30.350Z,102360.44
2022-08-09T15:02:58.367Z,102364.84
2022-08-09T15:05:27.328Z,102363.13
2022-08-09T15:07:58.299Z,102363.97
2022-08-09T15:10:31.490Z,102364.91
2022-08-09T15:13:02.984Z,102360.44
2022-08-09T15:15:34.450Z,102354.22
2022-08-09T15:18:06.654Z,102355.09
2022-08-09T15:21:56.529Z,102350.50
2022-08-09T15:24:05.764Z,102345.25
2022-08-09T15:26:18.766Z,102338.09
2022-08-09T15:28:55.518Z,102340.66
2022-08-09T15:31:28.669Z,102347.06
2022-08-09T15:34:33.579Z,102351.53
2022-08-09T15:36:58.383Z,102337.22
2022-08-09T15:39:25.701Z,102336.38
2022-08-09T15:42:02.729Z,102329.88
2022-08-09T15:44:32.630Z,102336.09
2022-08-09T15:47:00.438Z,102337.72
2022-08-09T15:49:28.587Z,102340.78
2022-08-09T15:52:04.726Z,102341.66
2022-08-09T15:54:46.175Z,102350.09
2022-08-09T15:57:34.027Z,102349.81
2022-08-09T16:00:04.054Z,102356.31
2022-08-09T16:02:31.377Z,102350.19
2022-08-09T16:04:58.337Z,102349.41
2022-08-09T16:07:29.663Z,102353.06
2022-08-09T16:10:16.983Z,102351.31
2022-08-09T16:12:55.883Z,102347.88
2022-08-09T16:16:04.561Z,102354.91
2022-08-09T16:18:12.576Z,102348.88
2022-08-09T16:20:41.594Z,102349.31
2022-08-09T16:23:11.713Z,102348.94
2022-08-09T16:25:40.515Z,102347.25
2022-08-09T16:28:08.089Z,102330.13
2022-08-09T16:30:40.922Z,102341.00
2022-08-09T16:33:12.090Z,102333.06
2022-08-09T16:35:57.242Z,102337.41
2022-08-09T16:38:27.024Z,102333.56
2022-08-09T16:40:53.991Z,102342.81
2022-08-09T16:43:22.630Z,102343.13
2022-08-09T16:45:53.656Z,102332.66
2022-08-09T16:48:40.997Z,102331.16
2022-08-09T16:51:13.850Z,102330.38
2022-08-09T16:54:18.034Z,102340.22
2022-08-09T16:56:35.179Z,102334.19
2022-08-09T16:59:06.750Z,102339.66
2022-08-09T17:01:38.715Z,102343.19
2022-08-09T17:04:06.666Z,102338.66
2022-08-09T17:08:41.584Z,102337.84
2022-08-09T17:09:44.988Z,102337.97
2022-08-09T17:12:08.991Z,102342.66
2022-08-09T17:14:36.258Z,102335.50
2022-08-09T17:17:25.856Z,102335.50
2022-08-09T17:20:29.093Z,102335.50
2022-08-09T17:22:52.110Z,102337.28
2022-08-09T17:25:20.463Z,102336.44
2022-08-09T17:27:54.360Z,102338.34
2022-08-09T17:30:25.769Z,102334.72
2022-08-09T17:32:53.456Z,102335.91
2022-08-09T17:35:20.531Z,102341.28
2022-08-09T17:38:11.943Z,102331.66
2022-08-09T17:40:35.558Z,102329.84
2022-08-09T17:43:32.210Z,102324.59
2022-08-09T17:46:02.664Z,102333.56
2022-08-09T17:48:39.783Z,102330.91
2022-08-09T17:51:18.113Z,102333.50
2022-08-09T17:53:51.679Z,102340.72
2022-08-09T17:56:35.209Z,102339.03
2022-08-09T17:59:11.517Z,102332.81
2022-08-09T18:01:58.056Z,102332.81
2022-08-09T18:04:27.206Z,102338.16
2022-08-09T18:06:55.646Z,102339.97
2022-08-09T18:09:40.282Z,102339.09
2022-08-09T18:12:17.637Z,102337.28
2022-08-09T18:14:54.103Z,102337.28
2022-08-09T18:17:27.472Z,102336.44
2022-08-09T18:20:59.790Z,102341.78
2022-08-09T18:22:57.361Z,102333.75
2022-08-09T18:25:51.181Z,102335.50
2022-08-09T18:28:21.398Z,102333.69
2022-08-09T18:31:01.100Z,102328.31
2022-08-09T18:33:28.413Z,102332.63
2022-08-09T18:35:59.265Z,102332.63
2022-08-09T18:38:30.383Z,102325.53
2022-08-09T18:40:59.281Z,102320.91
2022-08-09T18:43:26.407Z,102313.75
2022-08-09T18:46:50.074Z,102313.75
2022-08-09T18:48:42.298Z,102315.44
2022-08-09T18:51:09.888Z,102315.38
2022-08-09T18:54:00.596Z,102311.06
2022-08-09T18:56:28.183Z,102311.72
2022-08-09T18:58:57.373Z,102311.72
2022-08-09T19:01:25.894Z,102318.81
2022-08-09T19:04:06.196Z,102314.41
2022-08-09T19:06:38.548Z,102323.22
2022-08-09T19:09:07.437Z,102313.47
2022-08-09T19:11:37.738Z,102314.31
2022-08-09T19:14:06.570Z,102313.34
2022-08-09T19:16:35.909Z,102315.09
2022-08-09T19:19:21.241Z,102321.38
2022-08-09T19:22:05.052Z,102321.38
2022-08-09T19:25:08.839Z,102322.16
2022-08-09T19:27:23.106Z,102325.78
2022-08-09T19:30:23.167Z,102323.13
2022-08-09T19:32:37.710Z,102333.81
2022-08-09T19:35:05.840Z,102336.50
2022-08-09T19:37:54.014Z,102337.44
2022-08-09T19:40:21.901Z,102333.13
2022-08-09T19:42:49.925Z,102336.97
2022-08-09T19:45:18.672Z,102344.03
2022-08-09T19:47:47.979Z,102342.03
2022-08-09T19:50:51.511Z,102334.69
2022-08-09T19:53:04.691Z,102342.53
2022-08-09T19:56:02.765Z,102345.09
2022-08-09T19:58:30.088Z,102351.16
2022-08-09T20:00:58.782Z,102353.91
2022-08-09T20:04:09.786Z,102353.81
2022-08-09T20:06:23.336Z,102356.41
2022-08-09T20:08:56.584Z,102356.41
2022-08-09T20:11:26.583Z,102355.34
2022-08-09T20:13:55.065Z,102353.53
2022-08-09T20:16:36.898Z,102355.28
2022-08-09T20:19:47.423Z,102365.88
2022-08-09T20:22:00.157Z,102361.56
2022-08-09T20:24:33.924Z,102356.22
2022-08-09T20:27:08.419Z,102364.06
2022-08-09T20:29:39.745Z,102369.25
2022-08-09T20:32:30.393Z,102365.78
2022-08-09T20:34:56.015Z,102370.19
2022-08-09T20:37:24.098Z,102366.56
2022-08-09T20:40:15.232Z,102367.44
2022-08-09T20:42:39.177Z,102374.47
2022-08-09T20:47:59.026Z,102371.91
2022-08-09T20:50:47.271Z,102365.59
2022-08-09T20:53:18.799Z,102373.63
2022-08-09T20:56:02.836Z,102369.06
2022-08-09T20:58:32.360Z,102374.41
2022-08-09T21:01:32.275Z,102373.53
2022-08-09T21:05:49.398Z,102370.75
2022-08-09T21:06:42.695Z,102373.44
2022-08-09T21:09:14.300Z,102374.41
2022-08-09T21:14:34.775Z,102380.81
2022-08-09T21:18:11.090Z,102376.41
2022-08-09T21:20:19.008Z,102372.97
2022-08-09T21:22:46.863Z,102373.84
2022-08-09T21:25:39.304Z,102373.03
2022-08-09T21:28:15.811Z,102381.00
2022-08-09T21:30:43.581Z,102372.19
2022-08-09T21:33:10.647Z,102370.53
2022-08-09T21:35:40.554Z,102380.31
2022-08-09T21:38:11.590Z,102376.69
2022-08-09T21:40:39.550Z,102371.53
2022-08-09T21:43:09.512Z,102374.19
2022-08-09T21:45:39.315Z,102373.44
2022-08-09T21:48:09.779Z,102363.66
2022-08-09T21:50:46.702Z,102367.47
2022-08-09T21:53:39.859Z,102365.00
2022-08-09T21:56:07.186Z,102361.63
2022-08-09T21:58:54.135Z,102364.22
2022-08-09T22:01:26.029Z,102360.78
2022-08-09T22:04:08.296Z,102362.69
2022-08-09T22:06:35.229Z,102360.19
2022-08-09T22:09:02.145Z,102357.66
2022-08-09T22:12:09.052Z,102359.47
2022-08-09T22:14:16.408Z,102357.84
2022-08-09T22:16:44.455Z,102361.50
2022-08-09T22:19:53.381Z,102359.75
2022-08-09T22:21:58.382Z,102357.25
2022-08-09T22:24:25.300Z,102359.06
2022-08-09T22:26:53.172Z,102355.63
2022-08-09T22:29:28.907Z,102350.38
2022-08-09T22:32:01.976Z,102351.50
2022-08-09T22:34:29.533Z,102353.31
2022-08-09T22:36:58.454Z,102350.72
2022-08-09T22:39:58.161Z,102349.97
2022-08-09T22:42:21.131Z,102351.03
2022-08-09T22:45:00.021Z,102354.63
2022-08-09T22:48:33.874Z,102357.31
2022-08-09T22:50:25.884Z,102349.47
2022-08-09T22:52:54.856Z,102353.94
2022-08-09T22:55:39.597Z,102355.84
2022-08-09T22:58:20.377Z,102360.34
2022-08-09T23:00:58.367Z,102357.75
2022-08-09T23:04:02.649Z,102356.03
2022-08-09T23:06:14.269Z,102359.69
2022-08-09T23:08:44.614Z,102349.03
2022-08-09T23:11:15.867Z,102355.38
2022-08-09T23:13:46.990Z,102349.22
2022-08-09T23:16:16.528Z,102348.38
2022-08-09T23:18:45.380Z,102343.09
2022-08-09T23:21:14.875Z,102344.16
2022-08-09T23:24:05.482Z,102348.63
2022-08-09T23:26:34.426Z,102346.94
2022-08-09T23:29:01.393Z,102338.97
2022-08-09T23:31:28.335Z,102335.53
2022-08-09T23:33:55.191Z,102336.47
2022-08-09T23:36:22.114Z,102339.16
2022-08-09T23:38:49.603Z,102341.06
2022-08-09T23:41:29.071Z,102341.94
2022-08-09T23:43:58.406Z,102333.97
2022-08-09T23:46:25.625Z,102342.97
2022-08-09T23:48:52.444Z,102334.19
2022-08-09T23:51:19.429Z,102332.44
2022-08-09T23:53:46.327Z,102328.91
2022-08-09T23:56:16.617Z,102328.84
2022-08-09T23:58:48.695Z,102333.38
